Time;durP1;ratioP1;P1;durP2;ratioP2;P2;SDS_P1;SDS_P2;PMS_P1;PMS_P2;Temp;Humidity;BMP_temperature;BMP_pressure;BME280_temperature;BME280_humidity;BME280_pressure;Samples;Min_cycle;Max_cycle;Signal;HPM_P1;HPM_P2
2023/07/11 00:00:19;;;;;;;5.32;5.00;;;;;;;18.88;68.82;63957.59;5132811;28;20254;-84
2023/07/11 00:02:49;;;;;;;5.85;5.22;;;;;;;19.01;69.21;63965.97;5132341;28;20194;-82
2023/07/11 00:05:18;;;;;;;5.63;5.13;;;;;;;19.04;70.98;63971.69;5132613;28;20222;-82
2023/07/11 00:07:46;;;;;;;5.50;5.10;;;;;;;18.96;70.34;63958.19;5132128;28;20206;-83
2023/07/11 00:10:15;;;;;;;5.70;5.28;;;;;;;18.77;70.44;63944.06;5131974;28;20243;-83
2023/07/11 00:12:42;;;;;;;6.97;5.63;;;;;;;19.04;71.51;63969.63;5115223;28;20212;-83
2023/07/11 00:15:12;;;;;;;6.78;5.53;;;;;;;18.77;71.96;63938.91;5132166;28;20241;-83
2023/07/11 00:17:40;;;;;;;6.30;5.70;;;;;;;19.01;72.57;63968.56;5132962;28;20267;-83
2023/07/11 00:20:13;;;;;;;6.60;5.28;;;;;;;18.83;73.09;63949.78;5130667;28;20206;-83
2023/07/11 00:22:41;;;;;;;6.55;6.05;;;;;;;18.86;74.27;63950.34;5134091;28;20246;-83
2023/07/11 00:25:10;;;;;;;5.78;5.32;;;;;;;18.88;74.26;63952.44;5133347;28;20240;-82
2023/07/11 00:27:38;;;;;;;6.68;6.18;;;;;;;18.90;75.49;63955.03;5129645;28;20214;-83
2023/07/11 00:30:08;;;;;;;7.15;6.55;;;;;;;18.90;76.83;63952.44;5131764;28;20191;-84
2023/07/11 00:32:35;;;;;;;7.28;6.72;;;;;;;18.80;79.60;63944.06;5134575;28;20480;-83
2023/07/11 00:35:02;;;;;;;7.05;6.40;;;;;;;18.83;79.96;63950.31;5130426;28;20199;-82
2023/07/11 00:37:31;;;;;;;6.40;5.90;;;;;;;18.88;81.47;63952.94;5131191;28;20463;-83
2023/07/11 00:39:58;;;;;;;6.63;6.13;;;;;;;18.85;81.60;63947.25;5132256;28;20194;-83
2023/07/11 00:42:25;;;;;;;14.77;6.30;;;;;;;18.79;82.46;63943.56;5118486;28;20245;-83
2023/07/11 00:44:58;;;;;;;6.20;5.60;;;;;;;18.65;81.53;63928.44;5110640;28;20226;-83
2023/07/11 00:47:27;;;;;;;6.47;5.82;;;;;;;18.63;81.84;63928.94;5113338;28;20221;-84
2023/07/11 00:50:01;;;;;;;5.65;5.25;;;;;;;18.70;81.52;63933.66;5130669;28;20419;-82
2023/07/11 00:52:31;;;;;;;6.05;5.55;;;;;;;18.51;81.54;63916.44;5132111;28;20281;-83
2023/07/11 00:55:00;;;;;;;8.20;6.25;;;;;;;18.47;82.33;63912.78;5130253;28;20170;-84
2023/07/11 00:57:32;;;;;;;6.53;5.80;;;;;;;18.49;82.29;63911.78;5131397;28;20268;-84
2023/07/11 01:00:00;;;;;;;6.47;5.90;;;;;;;18.63;82.20;63926.38;5130940;28;20271;-83
2023/07/11 01:02:31;;;;;;;6.20;5.70;;;;;;;18.64;82.34;63930.50;5131218;28;20246;-83
2023/07/11 01:05:00;;;;;;;5.80;5.30;;;;;;;18.60;82.43;63920.66;5130286;28;20215;-83
2023/07/11 01:07:32;;;;;;;6.30;5.13;;;;;;;18.73;83.14;63939.38;5129114;28;20231;-83
2023/07/11 01:10:00;;;;;;;6.30;5.60;;;;;;;18.64;82.64;63924.84;5125904;28;20191;-83
2023/07/11 01:12:28;;;;;;;6.07;5.57;;;;;;;18.65;83.45;63933.59;5131358;28;20282;-82
2023/07/11 01:14:56;;;;;;;6.05;5.25;;;;;;;18.48;83.89;63913.31;5131620;28;20371;-82
2023/07/11 01:17:29;;;;;;;6.57;5.97;;;;;;;18.62;82.94;63925.84;5131886;28;20218;-84
2023/07/11 01:19:58;;;;;;;7.35;6.32;;;;;;;18.68;83.57;63929.53;5130880;28;20232;-84
2023/07/11 01:22:29;;;;;;;5.93;5.43;;;;;;;18.68;83.08;63934.16;5128746;28;20215;-84
2023/07/11 01:24:58;;;;;;;6.40;5.80;;;;;;;18.62;83.55;63928.41;5132171;28;20236;-82
2023/07/11 01:27:25;;;;;;;6.22;5.60;;;;;;;18.47;82.71;63907.63;5131095;28;20398;-82
2023/07/11 01:29:54;;;;;;;6.63;5.97;;;;;;;18.71;83.62;63937.28;5130137;28;20202;-84
2023/07/11 01:32:21;;;;;;;8.10;6.20;;;;;;;18.53;83.73;63913.91;5132985;28;20215;-83
2023/07/11 01:34:49;;;;;;;6.47;5.97;;;;;;;18.69;84.25;63932.63;5130044;28;20199;-83
2023/07/11 01:37:16;;;;;;;6.30;5.82;;;;;;;18.67;84.16;63931.06;5130054;28;20242;-82
2023/07/11 01:39:44;;;;;;;7.82;5.60;;;;;;;18.72;83.93;63938.31;5130453;27;20195;-82
2023/07/11 01:42:11;;;;;;;6.20;5.72;;;;;;;18.43;83.97;63908.63;5113246;28;20253;-84
2023/07/11 01:44:38;;;;;;;6.35;5.75;;;;;;;18.67;85.99;63927.97;5130755;28;20195;-82
2023/07/11 01:47:08;;;;;;;6.00;5.60;;;;;;;18.64;86.91;63930.00;5135300;28;20222;-83
2023/07/11 01:49:36;;;;;;;6.15;5.65;;;;;;;18.35;86.09;63900.25;5135639;27;20215;-82
2023/07/11 01:52:05;;;;;;;6.78;6.22;;;;;;;18.59;86.28;63925.28;5134207;28;20278;-84
2023/07/11 01:54:32;;;;;;;6.57;6.05;;;;;;;18.51;87.11;63916.97;5133924;28;20202;-82
2023/07/11 01:57:01;;;;;;;7.05;6.38;;;;;;;18.50;88.53;63915.91;5136413;28;20244;-84
2023/07/11 01:59:29;;;;;;;7.25;6.20;;;;;;;18.38;89.08;63903.38;5134748;28;20187;-83
2023/07/11 02:01:56;;;;;;;7.75;6.28;;;;;;;18.25;91.58;63887.28;5135585;28;20258;-83
2023/07/11 02:04:25;;;;;;;6.13;5.57;;;;;;;18.26;91.21;63891.41;5134280;28;20199;-83
2023/07/11 02:06:53;;;;;;;6.47;6.03;;;;;;;18.23;90.38;63888.28;5135579;28;20235;-83
2023/07/11 02:09:22;;;;;;;11.32;6.57;;;;;;;18.07;90.44;63866.47;5133229;28;20191;-82
2023/07/11 02:11:50;;;;;;;7.10;5.55;;;;;;;18.08;90.94;63875.25;5135546;28;20218;-82
2023/07/11 02:14:20;;;;;;;6.20;5.80;;;;;;;18.19;92.09;63884.13;5134695;28;20218;-84
2023/07/11 02:16:48;;;;;;;6.57;5.97;;;;;;;17.93;92.80;63854.44;5132958;28;20234;-83
2023/07/11 02:19:17;;;;;;;5.90;5.50;;;;;;;18.12;92.13;63873.72;5135612;28;20250;-84
2023/07/11 02:21:44;;;;;;;6.28;5.68;;;;;;;18.03;93.23;63866.94;5135683;28;20210;-83
2023/07/11 02:24:14;;;;;;;7.32;6.05;;;;;;;17.93;93.44;63856.53;5132611;28;20198;-84
2023/07/11 02:26:42;;;;;;;5.97;5.57;;;;;;;18.11;94.31;63875.25;5133605;28;20230;-83
2023/07/11 02:29:10;;;;;;;6.72;5.68;;;;;;;18.11;93.70;63875.25;5136157;28;20258;-82
2023/07/11 02:31:40;;;;;;;7.13;6.15;;;;;;;18.05;94.56;63866.94;5132883;28;20215;-84
2023/07/11 02:34:08;;;;;;;7.88;7.15;;;;;;;18.11;93.71;63875.78;5134514;28;20212;-84
2023/07/11 02:36:35;;;;;;;6.47;5.88;;;;;;;18.06;95.08;63870.06;5134037;28;20223;-84
2023/07/11 02:39:03;;;;;;;9.23;5.78;;;;;;;18.03;95.47;63866.94;5132464;28;20203;-83
2023/07/11 02:41:30;;;;;;;6.63;6.13;;;;;;;17.88;96.70;63844.09;5131633;28;20527;-83
2023/07/11 02:43:57;;;;;;;7.10;6.40;;;;;;;17.95;97.26;63853.97;5134905;28;20275;-84
2023/07/11 02:46:25;;;;;;;8.35;6.25;;;;;;;17.94;97.55;63858.06;5132705;28;20432;-83
2023/07/11 02:48:54;;;;;;;8.77;5.85;;;;;;;17.85;97.54;63848.16;5131984;28;20203;-83
2023/07/11 02:51:22;;;;;;;7.15;6.43;;;;;;;17.91;98.06;63852.34;5133679;28;20211;-84
2023/07/11 02:53:50;;;;;;;6.60;6.00;;;;;;;17.64;97.24;63829.41;5132734;28;20182;-83
2023/07/11 02:56:19;;;;;;;6.35;5.85;;;;;;;17.85;97.27;63848.16;5134783;28;20198;-84
2023/07/11 02:58:47;;;;;;;6.10;5.63;;;;;;;17.83;98.02;63843.50;5135683;28;20183;-83
2023/07/11 03:01:14;;;;;;;7.57;5.85;;;;;;;17.86;98.52;63846.66;5132144;28;20213;-83
2023/07/11 03:03:42;;;;;;;5.80;5.30;;;;;;;17.77;98.58;63834.69;5134569;28;20202;-84
2023/07/11 03:06:11;;;;;;;6.30;5.80;;;;;;;17.82;100.00;63848.16;5131832;28;20234;-82
2023/07/11 03:08:38;;;;;;;6.78;6.07;;;;;;;17.85;99.27;63848.16;5131930;28;20195;-84
2023/07/11 03:11:05;;;;;;;6.20;5.70;;;;;;;17.61;98.72;63820.59;5133345;28;20300;-82
2023/07/11 03:13:33;;;;;;;5.93;5.53;;;;;;;17.77;99.64;63837.78;5133055;28;20191;-82
2023/07/11 03:16:04;;;;;;;5.93;5.43;;;;;;;17.61;100.00;63823.69;5129723;28;20215;-83
2023/07/11 03:18:31;;;;;;;8.73;6.35;;;;;;;17.63;100.00;63825.25;5126995;28;20218;-83
2023/07/11 03:20:59;;;;;;;7.18;6.30;;;;;;;17.70;100.00;63832.56;5111085;28;20425;-84
2023/07/11 03:23:31;;;;;;;7.30;6.55;;;;;;;17.61;100.00;63818.03;5120787;28;20255;-83
2023/07/11 03:25:59;;;;;;;6.97;6.28;;;;;;;17.88;100.00;63848.72;5133118;28;20222;-83
2023/07/11 03:28:26;;;;;;;7.20;6.53;;;;;;;17.92;100.00;63850.31;5133251;28;20274;-83
2023/07/11 03:30:53;;;;;;;7.35;6.65;;;;;;;17.86;100.00;63847.16;5133049;28;20363;-83
2023/07/11 03:33:21;;;;;;;6.57;6.07;;;;;;;17.96;100.00;63860.16;5129920;28;20384;-83
2023/07/11 03:35:51;;;;;;;7.70;6.90;;;;;;;18.04;100.00;63867.97;5131797;28;20220;-85
2023/07/11 03:38:22;;;;;;;7.47;6.55;;;;;;;18.04;100.00;63860.75;5132793;28;20241;-85
2023/07/11 03:40:50;;;;;;;7.97;7.35;;;;;;;18.13;100.00;63877.88;5131236;28;20222;-84
2023/07/11 03:43:19;;;;;;;6.95;6.25;;;;;;;18.16;100.00;63877.88;5133391;28;20213;-83
2023/07/11 03:45:48;;;;;;;11.38;8.02;;;;;;;18.27;99.38;63887.28;5131518;28;20245;-84
2023/07/11 03:48:15;;;;;;;8.70;7.60;;;;;;;18.07;98.82;63868.50;5133259;27;20199;-83
2023/07/11 03:50:43;;;;;;;8.88;8.13;;;;;;;18.08;98.83;63872.13;5133903;28;20240;-84
2023/07/11 03:53:10;;;;;;;8.55;7.85;;;;;;;18.25;99.18;63889.84;5131083;28;20199;-82
2023/07/11 03:55:38;;;;;;;8.38;7.57;;;;;;;18.55;99.43;63918.53;5132900;28;20218;-81
2023/07/11 03:58:06;;;;;;;8.40;7.60;;;;;;;18.54;100.00;63920.09;5118180;28;20229;-82
2023/07/11 04:00:34;;;;;;;8.52;7.82;;;;;;;18.48;100.00;63913.31;5110043;28;20243;-82
2023/07/11 04:03:01;;;;;;;7.95;7.22;;;;;;;18.19;100.00;63878.97;5111701;28;20196;-84
2023/07/11 04:05:29;;;;;;;8.32;7.45;;;;;;;18.47;100.00;63909.69;5117612;28;20232;-82
2023/07/11 04:07:57;;;;;;;8.40;7.70;;;;;;;18.60;100.00;63926.34;5133744;28;20206;-83
2023/07/11 04:10:24;;;;;;;7.80;7.10;;;;;;;18.65;100.00;63926.41;5131253;28;20210;-83
2023/07/11 04:12:51;;;;;;;8.15;7.45;;;;;;;18.79;100.00;63948.22;5111783;28;20206;-84
2023/07/11 04:15:20;;;;;;;8.73;7.93;;;;;;;18.90;99.94;63955.03;5110099;28;20218;-83
2023/07/11 04:17:48;;;;;;;8.48;7.70;;;;;;;19.02;99.53;63970.13;5131025;28;20206;-82
2023/07/11 04:20:15;;;;;;;8.25;7.53;;;;;;;19.05;97.21;63975.81;5132835;28;20195;-82
2023/07/11 04:22:43;;;;;;;8.90;8.07;;;;;;;18.95;97.18;63962.28;5129431;28;20396;-83
2023/07/11 04:25:10;;;;;;;8.70;8.00;;;;;;;19.13;97.43;63973.84;5130128;28;20382;-83
2023/07/11 04:27:37;;;;;;;9.73;8.75;;;;;;;19.15;100.00;63983.16;5130623;28;20590;-81
2023/07/11 04:30:05;;;;;;;8.73;7.85;;;;;;;18.87;100.00;63946.75;5130062;28;20254;-82
2023/07/11 04:32:35;;;;;;;8.90;8.10;;;;;;;18.76;100.00;63943.00;5133428;28;20264;-83
2023/07/11 04:35:02;;;;;;;13.90;9.43;;;;;;;18.70;100.00;63931.59;5129073;28;20206;-83
2023/07/11 04:37:30;;;;;;;10.20;9.30;;;;;;;18.84;100.00;63948.25;5129827;28;20228;-83
2023/07/11 04:39:57;;;;;;;10.65;9.63;;;;;;;18.81;100.00;63948.22;5131327;28;20210;-82
2023/07/11 04:42:25;;;;;;;10.45;9.55;;;;;;;18.94;97.64;63959.22;5129846;28;20230;-84
2023/07/11 04:44:51;;;;;;;10.13;9.13;;;;;;;19.07;96.29;63972.25;5127647;28;20194;-80
2023/07/11 04:47:19;;;;;;;12.23;8.38;;;;;;;18.83;96.46;63949.78;5130274;28;20230;-83
2023/07/11 04:49:47;;;;;;;10.55;9.18;;;;;;;19.21;95.62;63989.94;5129976;28;20216;-82
2023/07/11 04:52:14;;;;;;;10.35;8.18;;;;;;;19.41;97.93;64012.88;5109206;28;20278;-82
2023/07/11 04:54:41;;;;;;;9.35;8.45;;;;;;;19.59;96.84;64025.97;5108596;28;20211;-82
2023/07/11 04:57:08;;;;;;;9.35;8.55;;;;;;;19.69;95.11;64038.97;5110734;28;20308;-82
2023/07/11 04:59:35;;;;;;;9.40;8.68;;;;;;;19.74;93.42;64041.59;5113192;28;20229;-84
2023/07/11 05:02:02;;;;;;;10.27;8.63;;;;;;;19.74;93.81;64047.31;5107303;28;20246;-82
2023/07/11 05:04:29;;;;;;;8.45;7.65;;;;;;;19.70;92.74;64040.53;5111398;28;20504;-82
2023/07/11 05:07:00;;;;;;;10.80;8.25;;;;;;;19.91;91.09;64056.75;5107604;28;20269;-83
2023/07/11 05:09:28;;;;;;;9.10;7.72;;;;;;;19.94;92.25;64065.06;5116379;28;20191;-83
2023/07/11 05:11:55;;;;;;;8.43;7.68;;;;;;;20.16;90.87;64085.44;5128138;28;20277;-79
2023/07/11 05:14:22;;;;;;;11.18;8.45;;;;;;;20.15;90.00;64084.38;5137190;28;20217;-81
2023/07/11 05:16:49;;;;;;;9.18;8.35;;;;;;;20.26;89.48;64098.97;5134619;28;20221;-81
2023/07/11 05:19:16;;;;;;;10.40;9.40;;;;;;;20.39;88.89;64107.38;5133534;28;20231;-84
2023/07/11 05:21:43;;;;;;;13.18;9.27;;;;;;;20.42;87.79;64110.50;5134669;28;20214;-80
2023/07/11 05:24:12;;;;;;;13.35;10.02;;;;;;;20.31;87.70;64103.69;5133771;28;20267;-82
2023/07/11 05:26:39;;;;;;;9.98;8.48;;;;;;;20.37;87.29;64107.88;5131955;28;20235;-82
2023/07/11 05:29:08;;;;;;;9.88;8.98;;;;;;;20.48;86.05;64124.03;5136303;28;20190;-83
2023/07/11 05:31:35;;;;;;;10.43;7.95;;;;;;;20.51;89.51;64124.56;5133605;28;20221;-84
2023/07/11 05:34:04;;;;;;;10.25;9.07;;;;;;;20.59;89.53;64130.84;5139415;28;20175;-84
2023/07/11 05:36:32;;;;;;;12.90;9.05;;;;;;;20.52;88.38;64123.53;5113729;28;20235;-82
2023/07/11 05:39:01;;;;;;;14.07;9.40;;;;;;;20.37;87.38;64110.47;5128064;28;20194;-83
2023/07/11 05:41:29;;;;;;;11.52;8.82;;;;;;;20.55;87.70;64129.25;5133332;28;20217;-84
2023/07/11 05:43:56;;;;;;;9.48;8.77;;;;;;;20.85;87.12;64157.47;5133871;28;20195;-83
2023/07/11 05:46:26;;;;;;;10.27;8.05;;;;;;;20.73;85.93;64144.94;5135612;28;20230;-85
2023/07/11 05:48:54;;;;;;;9.77;8.88;;;;;;;21.06;87.30;64178.88;5132974;28;20203;-83
2023/07/11 05:51:21;;;;;;;10.25;9.25;;;;;;;20.98;85.16;64173.66;5124675;28;20215;-82
2023/07/11 05:53:49;;;;;;;11.18;9.50;;;;;;;20.79;84.49;64151.19;5133152;28;20198;-82
2023/07/11 05:56:17;;;;;;;10.52;8.30;;;;;;;20.91;84.55;64160.63;5125612;28;20211;-84
2023/07/11 05:58:47;;;;;;;9.70;8.80;;;;;;;21.15;83.08;64190.88;5131882;28;20194;-85
2023/07/11 06:01:20;;;;;;;11.85;9.23;;;;;;;21.13;81.33;64189.31;5131186;28;20214;-83
2023/07/11 06:03:50;;;;;;;13.23;9.65;;;;;;;20.98;80.30;64171.06;5137054;28;20263;-84
2023/07/11 06:06:19;;;;;;;12.13;9.90;;;;;;;20.98;80.11;64173.66;5132783;28;20218;-83
2023/07/11 06:08:47;;;;;;;9.13;8.23;;;;;;;21.21;81.71;64191.97;5135210;28;20203;-84
2023/07/11 06:11:15;;;;;;;10.48;8.60;;;;;;;21.53;79.86;64228.50;5119525;28;20218;-85
2023/07/11 06:13:43;;;;;;;10.65;8.75;;;;;;;21.60;79.71;64238.41;5135154;27;20232;-84
2023/07/11 06:16:14;;;;;;;9.43;8.52;;;;;;;21.82;78.22;64258.28;5121358;28;20222;-83
2023/07/11 06:18:42;;;;;;;9.23;8.27;;;;;;;22.03;77.54;64282.84;5131234;28;20199;-86
2023/07/11 06:21:13;;;;;;;10.10;8.43;;;;;;;22.01;76.68;64277.63;5122924;28;20222;-85
2023/07/11 06:23:40;;;;;;;9.80;8.75;;;;;;;22.33;73.38;64313.66;5127719;28;20263;-84
2023/07/11 06:26:09;;;;;;;12.93;8.45;;;;;;;22.32;74.91;64310.03;5128087;28;20234;-82
2023/07/11 06:28:36;;;;;;;12.60;9.07;;;;;;;22.36;74.37;64317.34;5127815;28;20199;-84
2023/07/11 06:31:03;;;;;;;13.63;8.93;;;;;;;22.56;73.74;64335.66;5129016;28;20222;-84
2023/07/11 06:33:32;;;;;;;11.25;8.10;;;;;;;22.17;72.82;64294.34;5126926;28;20438;-85
2023/07/11 06:35:59;;;;;;;10.70;9.10;;;;;;;22.16;72.35;64293.81;5121256;28;20219;-85
2023/07/11 06:38:26;;;;;;;11.02;8.23;;;;;;;22.34;71.51;64312.13;5115675;28;20191;-85
2023/07/11 06:40:56;;;;;;;12.43;9.15;;;;;;;22.46;73.92;64324.66;5126981;28;20226;-82
2023/07/11 06:43:25;;;;;;;9.82;8.13;;;;;;;22.39;71.86;64317.34;5134093;28;20195;-85
2023/07/11 06:45:54;;;;;;;11.82;8.50;;;;;;;22.33;71.94;64311.59;5132651;28;20206;-84
2023/07/11 06:48:26;;;;;;;9.02;8.20;;;;;;;22.48;72.02;64331.94;5131027;28;20223;-84
2023/07/11 06:50:56;;;;;;;9.82;8.30;;;;;;;22.57;74.70;64341.88;5128925;28;20222;-83
2023/07/11 06:53:27;;;;;;;9.25;8.35;;;;;;;22.67;73.47;64344.56;5132075;28;20206;-83
2023/07/11 06:55:55;;;;;;;8.70;7.80;;;;;;;22.84;71.37;64367.00;5110310;28;20274;-85
2023/07/11 06:58:24;;;;;;;9.10;8.15;;;;;;;23.23;70.62;64407.28;5114464;28;20255;-85
2023/07/11 07:01:00;;;;;;;10.27;8.65;;;;;;;23.18;70.51;64402.56;5113877;28;20223;-82
2023/07/11 07:03:26;;;;;;;14.00;9.15;;;;;;;23.25;71.45;64409.88;5123760;28;20194;-83
2023/07/11 07:05:58;;;;;;;10.00;9.05;;;;;;;23.40;68.98;64419.88;5109659;28;20447;-83
2023/07/11 07:08:26;;;;;;;15.45;9.43;;;;;;;23.64;70.58;64450.69;5110182;28;20227;-83
2023/07/11 07:10:54;;;;;;;15.70;10.45;;;;;;;23.58;68.19;64443.91;5120310;28;20226;-82
2023/07/11 07:13:23;;;;;;;14.50;10.18;;;;;;;23.68;67.63;64454.38;5112685;28;20255;-83
2023/07/11 07:15:51;;;;;;;20.60;9.50;;;;;;;23.82;66.27;64466.94;5113993;28;20221;-85
2023/07/11 07:18:19;;;;;;;16.40;9.75;;;;;;;24.05;65.14;64490.00;5112556;28;20217;-84
2023/07/11 07:20:46;;;;;;;10.80;9.70;;;;;;;24.11;64.66;64499.38;5110007;28;20305;-84
2023/07/11 07:23:17;;;;;;;10.80;9.75;;;;;;;23.98;64.82;64480.56;5109812;28;20217;-83
2023/07/11 07:25:51;;;;;;;11.32;9.35;;;;;;;24.08;64.09;64493.13;5113461;28;20220;-83
2023/07/11 07:28:18;;;;;;;13.25;9.85;;;;;;;24.14;64.00;64502.53;5112605;28;20219;-84
2023/07/11 07:30:47;;;;;;;16.75;9.65;;;;;;;24.29;63.40;64517.72;5110909;28;20211;-83
2023/07/11 07:33:14;;;;;;;12.43;10.02;;;;;;;24.48;63.37;64538.13;5113675;28;20282;-83
2023/07/11 07:35:41;;;;;;;11.13;9.57;;;;;;;24.14;63.66;64507.22;5129397;28;20214;-83
2023/07/11 07:38:10;;;;;;;12.95;9.98;;;;;;;24.22;63.79;64508.31;5130549;28;20282;-83
2023/07/11 07:40:40;;;;;;;12.52;9.88;;;;;;;24.45;62.64;64534.47;5129563;28;20252;-81
2023/07/11 07:43:08;;;;;;;19.38;10.40;;;;;;;24.42;63.55;64531.34;5134909;28;20202;-83
2023/07/11 07:45:34;;;;;;;11.55;9.98;;;;;;;24.51;63.51;64541.28;5131535;28;20190;-83
2023/07/11 07:48:02;;;;;;;14.45;9.85;;;;;;;24.50;63.08;64537.63;5131363;28;20222;-82
2023/07/11 07:50:29;;;;;;;12.18;10.15;;;;;;;24.63;63.01;64553.31;5132613;28;20190;-83
2023/07/11 07:52:56;;;;;;;14.07;10.77;;;;;;;24.66;63.10;64553.88;5130210;28;20210;-84
2023/07/11 07:55:26;;;;;;;15.30;9.60;;;;;;;24.90;62.72;64579.00;5132621;28;20182;-83
2023/07/11 07:57:55;;;;;;;12.50;10.18;;;;;;;25.00;62.27;64594.69;5132319;28;20195;-83
2023/07/11 08:00:22;;;;;;;21.65;10.82;;;;;;;24.79;61.90;64568.00;5130425;28;20197;-85
2023/07/11 08:02:49;;;;;;;11.45;9.15;;;;;;;24.82;63.08;64570.63;5130875;28;20199;-83
2023/07/11 08:05:17;;;;;;;13.93;10.02;;;;;;;24.90;63.24;64586.84;5130448;28;20193;-83
2023/07/11 08:07:45;;;;;;;16.13;8.93;;;;;;;24.96;61.59;64587.91;5131354;28;20557;-83
2023/07/11 08:10:12;;;;;;;13.20;9.55;;;;;;;24.99;63.02;64591.03;5134105;28;20191;-83
2023/07/11 08:12:39;;;;;;;9.60;8.70;;;;;;;25.23;60.40;64613.56;5134777;28;20270;-83
2023/07/11 08:15:10;;;;;;;11.43;10.02;;;;;;;25.38;58.16;64631.91;5131152;28;20254;-82
2023/07/11 08:17:37;;;;;;;9.35;8.45;;;;;;;25.43;59.97;64637.16;5130265;28;20249;-82
2023/07/11 08:20:05;;;;;;;13.55;9.70;;;;;;;25.47;62.58;64640.81;5131889;28;20229;-85
2023/07/11 08:22:32;;;;;;;15.80;8.98;;;;;;;25.72;60.78;64670.16;5131667;28;20214;-83
2023/07/11 08:24:59;;;;;;;10.20;9.15;;;;;;;26.07;60.82;64703.72;5130788;28;20198;-85
2023/07/11 08:27:27;;;;;;;10.18;8.93;;;;;;;26.41;60.72;64741.97;5133475;28;20235;-84
2023/07/11 08:29:55;;;;;;;13.85;9.73;;;;;;;26.35;57.71;64727.34;5132164;28;20194;-82
2023/07/11 08:32:24;;;;;;;12.43;9.15;;;;;;;26.41;56.09;64738.84;5132225;28;20214;-82
2023/07/11 08:34:51;;;;;;;11.23;7.97;;;;;;;26.61;56.87;64760.34;5130853;28;20218;-83
2023/07/11 08:37:19;;;;;;;9.55;7.07;;;;;;;26.80;53.09;64777.66;5130982;28;20236;-83
2023/07/11 08:39:47;;;;;;;7.63;6.93;;;;;;;26.79;52.25;64776.63;5133426;28;20222;-83
2023/07/11 08:42:26;;;;;;;7.35;6.40;;;;;;;26.78;51.12;64777.66;5133515;28;20211;-82
2023/07/11 08:45:00;;;;;;;7.50;6.82;;;;;;;26.60;49.58;64759.28;5131334;28;20527;-84
2023/07/11 08:47:31;;;;;;;6.80;6.30;;;;;;;26.74;50.30;64771.38;5131341;28;20254;-82
2023/07/11 08:50:04;;;;;;;6.65;5.85;;;;;;;26.80;49.05;64779.78;5132790;28;20246;-82
2023/07/11 08:52:33;;;;;;;5.57;5.03;;;;;;;26.74;45.86;64771.38;5134624;28;20233;-83
2023/07/11 08:55:17;;;;;;;5.30;5.00;;;;;;;26.75;45.90;64769.31;5136455;28;20202;-81
2023/07/11 08:57:50;;;;;;;8.63;5.45;;;;;;;26.77;47.09;64777.13;5137633;28;20201;-82
2023/07/11 09:00:19;;;;;;;5.50;5.10;;;;;;;26.91;46.03;64783.47;5132802;28;20270;-83
2023/07/11 09:02:55;;;;;;;5.93;5.30;;;;;;;27.28;43.99;64828.03;5133900;28;20199;-81
2023/07/11 09:05:36;;;;;;;6.38;4.85;;;;;;;27.28;43.20;64835.88;5132287;28;20187;-82
2023/07/11 09:08:06;;;;;;;6.00;5.35;;;;;;;27.40;43.33;64842.72;5134484;28;20275;-84
2023/07/11 09:10:41;;;;;;;5.55;5.05;;;;;;;27.29;43.99;64828.56;5119171;28;20195;-81
2023/07/11 09:13:21;;;;;;;5.88;5.10;;;;;;;27.26;44.80;64825.41;5112044;28;20199;-82
2023/07/11 09:15:58;;;;;;;7.28;5.82;;;;;;;27.42;44.12;64842.22;5113977;28;20237;-81
2023/07/11 09:18:42;;;;;;;6.93;6.40;;;;;;;27.45;43.82;64842.75;5114025;28;20194;-83
2023/07/11 09:21:15;;;;;;;5.63;5.28;;;;;;;27.49;44.52;64856.88;5114024;28;20215;-83
2023/07/11 09:23:52;;;;;;;5.88;5.43;;;;;;;27.76;43.35;64877.91;5115584;28;20269;-82
2023/07/11 09:26:26;;;;;;;6.40;5.80;;;;;;;27.70;43.09;64873.69;5113672;28;20231;-83
2023/07/11 09:28:59;;;;;;;9.68;6.70;;;;;;;28.05;43.38;64910.97;5111688;28;20235;-82
2023/07/11 09:31:28;;;;;;;6.47;5.93;;;;;;;28.19;41.77;64928.28;5112794;28;20298;-83
2023/07/11 09:33:59;;;;;;;7.05;6.18;;;;;;;28.19;43.49;64927.75;5118600;28;20267;-83
2023/07/11 09:36:32;;;;;;;6.03;5.43;;;;;;;28.28;41.56;64935.13;5135696;28;20303;-82
2023/07/11 09:39:06;;;;;;;6.60;5.18;;;;;;;28.43;41.64;64945.63;5135617;28;20201;-82
2023/07/11 09:41:42;;;;;;;6.65;5.63;;;;;;;28.48;42.84;64952.44;5134089;28;20235;-82
2023/07/11 09:44:13;;;;;;;7.28;6.00;;;;;;;28.16;42.72;64924.63;5133860;28;20178;-84
2023/07/11 09:46:40;;;;;;;7.20;5.82;;;;;;;28.16;42.82;64922.50;5132790;28;20273;-82
2023/07/11 09:49:14;;;;;;;7.28;6.40;;;;;;;28.25;42.06;64931.97;5133554;28;20222;-85
2023/07/11 09:51:48;;;;;;;6.07;5.57;;;;;;;28.34;42.23;64944.03;5135404;28;20267;-83
2023/07/11 09:54:18;;;;;;;7.80;5.90;;;;;;;28.26;43.55;64935.13;5131769;28;20206;-82
2023/07/11 09:56:47;;;;;;;6.85;6.18;;;;;;;28.21;42.49;64927.78;5134622;28;20213;-79
2023/07/11 09:59:15;;;;;;;7.03;6.43;;;;;;;28.07;42.48;64904.69;5131670;28;20198;-84
2023/07/11 10:01:51;;;;;;;6.55;5.93;;;;;;;27.96;44.08;64901.00;5134199;28;20211;-84
2023/07/11 10:04:23;;;;;;;10.73;5.95;;;;;;;27.95;43.76;64897.84;5136339;28;20204;-82
2023/07/11 10:06:56;;;;;;;6.55;5.93;;;;;;;28.22;43.04;64928.81;5134756;28;20229;-84
2023/07/11 10:09:25;;;;;;;10.45;6.63;;;;;;;28.25;43.68;64928.84;5131830;28;20221;-83
2023/07/11 10:11:57;;;;;;;9.52;6.28;;;;;;;28.24;42.96;64923.06;5132966;28;20211;-81
2023/07/11 10:14:27;;;;;;;7.78;6.13;;;;;;;28.19;43.23;64923.06;5132692;28;20248;-83
2023/07/11 10:16:56;;;;;;;9.02;6.20;;;;;;;28.35;42.84;64939.84;5133802;28;20215;-82
2023/07/11 10:19:26;;;;;;;9.43;5.88;;;;;;;28.43;43.32;64948.25;5134309;28;20198;-84
2023/07/11 10:21:57;;;;;;;6.40;5.80;;;;;;;28.41;43.64;64950.84;5132009;28;20221;-84
2023/07/11 10:24:27;;;;;;;7.30;6.13;;;;;;;28.26;43.29;64935.66;5131670;28;20194;-83
2023/07/11 10:27:02;;;;;;;9.55;6.53;;;;;;;28.53;44.41;64963.47;5131503;28;20226;-83
2023/07/11 10:29:36;;;;;;;6.80;5.47;;;;;;;28.73;42.58;64981.34;5134617;28;20214;-83
2023/07/11 10:32:07;;;;;;;5.80;5.30;;;;;;;28.72;43.60;64980.81;5132243;28;20211;-81
2023/07/11 10:34:40;;;;;;;6.75;6.10;;;;;;;28.47;44.19;64951.94;5134893;27;20183;-83
2023/07/11 10:37:14;;;;;;;7.13;5.20;;;;;;;28.48;43.67;64952.44;5133865;28;20388;-81
2023/07/11 10:39:49;;;;;;;5.68;5.25;;;;;;;28.63;43.90;64968.22;5131992;28;20211;-85
2023/07/11 10:42:28;;;;;;;6.90;6.25;;;;;;;28.63;43.53;64968.22;5132355;28;20210;-83
2023/07/11 10:45:08;;;;;;;5.93;5.43;;;;;;;28.68;45.10;64976.63;5133162;28;20194;-82
2023/07/11 10:47:44;;;;;;;7.18;5.57;;;;;;;28.53;44.32;64957.72;5132762;28;20397;-84
2023/07/11 10:50:30;;;;;;;5.07;4.78;;;;;;;28.80;44.46;64989.22;5134395;28;20475;-80
2023/07/11 10:53:05;;;;;;;6.70;5.82;;;;;;;28.62;44.27;64964.53;5131317;28;20225;-82
2023/07/11 10:55:36;;;;;;;12.15;5.63;;;;;;;28.47;45.22;64957.16;5131634;28;20475;-82
2023/07/11 10:58:05;;;;;;;6.53;5.50;;;;;;;28.77;44.22;64985.56;5130768;28;20217;-82
2023/07/11 11:00:49;;;;;;;6.60;5.47;;;;;;;28.55;44.37;64965.59;5131645;28;20202;-82
2023/07/11 11:03:33;;;;;;;5.65;5.20;;;;;;;28.61;44.27;64966.66;5132529;28;20191;-80
2023/07/11 11:06:23;;;;;;;5.88;5.30;;;;;;;28.60;42.50;64967.69;5130352;28;20210;-82
2023/07/11 11:09:00;;;;;;;5.63;5.13;;;;;;;28.57;43.43;64962.44;5132206;28;20214;-81
2023/07/11 11:11:38;;;;;;;6.72;6.18;;;;;;;28.91;43.14;65000.78;5130298;28;20292;-82
2023/07/11 11:14:12;;;;;;;6.57;5.95;;;;;;;29.10;41.98;65017.59;5130654;28;20475;-81
2023/07/11 11:16:54;;;;;;;6.13;5.60;;;;;;;29.32;42.43;65040.72;5131167;28;20282;-82
2023/07/11 11:19:34;;;;;;;5.97;5.55;;;;;;;29.57;41.43;65069.09;5133205;28;20191;-83
2023/07/11 11:22:08;;;;;;;6.25;5.75;;;;;;;29.59;42.54;65071.19;5129959;28;20219;-84
2023/07/11 11:24:48;;;;;;;5.13;4.60;;;;;;;29.81;41.43;65089.06;5132466;28;20201;-81
2023/07/11 11:27:29;;;;;;;7.30;5.68;;;;;;;29.52;42.45;65056.47;5130420;28;20214;-81
2023/07/11 11:30:06;;;;;;;5.63;5.03;;;;;;;29.61;40.90;65075.91;5129468;28;20281;-82
2023/07/11 11:32:44;;;;;;;5.22;4.93;;;;;;;29.36;41.79;65048.06;5132659;28;20234;-83
2023/07/11 11:35:19;;;;;;;7.30;6.60;;;;;;;29.40;42.30;65047.03;5130644;28;20221;-82
2023/07/11 11:38:04;;;;;;;5.32;4.82;;;;;;;29.55;41.14;65067.50;5130106;28;20228;-83
2023/07/11 11:40:36;;;;;;;5.22;4.82;;;;;;;29.68;42.19;65078.56;5130565;28;20187;-81